Time;durP1;ratioP1;P1;durP2;ratioP2;P2;SDS_P1;SDS_P2;PMS_P1;PMS_P2;Temp;Humidity;BMP_temperature;BMP_pressure;BME280_temperature;BME280_humidity;BME280_pressure;Samples;Min_cycle;Max_cycle;Signal;HPM_P1;HPM_P2
2023/09/02 00:01:13;;;;;;;2.47;2.27;;;12.60;99.90;12.00;100220;;;;571391;247;24154;-85
2023/09/02 00:03:41;;;;;;;2.20;2.10;;;12.60;99.90;12.00;100216;;;;571715;247;24180;-80
2023/09/02 00:06:09;;;;;;;4.90;2.33;;;12.60;99.90;12.00;100214;;;;571822;247;24124;-80
2023/09/02 00:08:37;;;;;;;2.57;2.40;;;12.60;99.90;12.00;100221;;;;571821;247;24141;-82
2023/09/02 00:11:05;;;;;;;2.37;2.23;;;12.60;99.90;12.00;100219;;;;572550;246;24105;-78
2023/09/02 00:13:36;;;;;;;3.07;2.70;;;12.60;99.90;12.00;100216;;;;572612;247;24119;-77
2023/09/02 00:16:01;;;;;;;4.53;2.50;;;12.60;99.90;12.00;100221;;;;571537;247;24130;-77
2023/09/02 00:18:29;;;;;;;3.37;2.70;;;12.60;99.90;12.00;100218;;;;571576;247;24127;-77
2023/09/02 00:20:57;;;;;;;2.07;1.97;;;12.60;99.90;12.00;100227;;;;571399;247;24089;-76
2023/09/02 00:23:24;;;;;;;3.97;2.30;;;12.60;99.90;12.00;100222;;;;571346;247;24069;-77
2023/09/02 00:25:56;;;;;;;2.93;2.17;;;12.70;99.90;12.10;100220;;;;571412;247;24146;-77
2023/09/02 00:28:20;;;;;;;2.37;2.07;;;12.70;99.90;12.10;100231;;;;570954;247;24088;-77
2023/09/02 00:30:48;;;;;;;2.87;2.67;;;12.70;99.90;12.10;100223;;;;571234;247;24110;-77
2023/09/02 00:33:16;;;;;;;5.43;3.50;;;12.70;99.90;12.10;100230;;;;566184;247;38178;-78
2023/09/02 00:35:45;;;;;;;2.83;2.63;;;12.80;99.90;12.10;100231;;;;570939;247;24075;-77
2023/09/02 00:38:16;;;;;;;2.70;2.50;;;12.70;99.90;12.10;100223;;;;571226;247;25134;-78
2023/09/02 00:40:41;;;;;;;4.27;2.83;;;12.80;99.90;12.10;100220;;;;570993;247;24073;-79
2023/09/02 00:43:08;;;;;;;4.60;2.23;;;12.80;99.90;12.10;100225;;;;571099;247;24122;-77
2023/09/02 00:45:39;;;;;;;4.67;3.37;;;12.80;99.90;12.10;100226;;;;566484;247;36541;-78
2023/09/02 00:48:04;;;;;;;3.43;3.13;;;12.80;99.90;12.10;100233;;;;566253;247;37052;-79
2023/09/02 00:50:32;;;;;;;4.77;2.83;;;12.80;99.90;12.10;100229;;;;571630;247;24077;-77
2023/09/02 00:53:00;;;;;;;3.00;2.80;;;12.70;99.90;12.00;100226;;;;571146;247;24074;-80
2023/09/02 00:55:31;;;;;;;2.20;2.00;;;12.70;99.90;12.00;100222;;;;571166;247;24077;-76
2023/09/02 00:57:56;;;;;;;7.60;2.33;;;12.70;99.90;12.00;100229;;;;571104;247;24108;-76
2023/09/02 01:00:24;;;;;;;2.20;2.10;;;12.70;99.90;12.00;100230;;;;571126;247;24150;-77
2023/09/02 01:02:53;;;;;;;2.53;2.33;;;12.70;99.90;12.00;100232;;;;571290;247;24085;-75
2023/09/02 01:05:22;;;;;;;2.20;2.10;;;12.70;99.90;12.10;100230;;;;570599;247;24149;-79
2023/09/02 01:07:54;;;;;;;2.87;2.20;;;12.70;99.90;12.00;100227;;;;570573;247;24136;-77
2023/09/02 01:10:22;;;;;;;3.37;2.27;;;12.70;99.90;12.00;100234;;;;570757;247;24100;-81
2023/09/02 01:12:50;;;;;;;2.10;1.90;;;12.70;99.90;12.00;100234;;;;571047;247;24111;-78
2023/09/02 01:15:18;;;;;;;2.80;2.00;;;12.70;99.90;12.00;100227;;;;571387;247;24072;-79
2023/09/02 01:17:45;;;;;;;2.10;1.93;;;12.60;99.90;12.00;100226;;;;571393;247;24087;-81
2023/09/02 01:20:17;;;;;;;5.13;2.17;;;12.60;99.90;11.90;100230;;;;571586;247;24061;-80
2023/09/02 01:23:19;;;;;;;2.07;1.93;;;12.60;99.90;11.90;100227;;;;571893;246;24115;-78
2023/09/02 01:25:55;;;;;;;3.37;2.10;;;12.60;99.90;11.90;100228;;;;572556;247;24092;-81
2023/09/02 01:28:24;;;;;;;1.93;1.83;;;12.50;99.90;11.90;100228;;;;572193;247;24135;-80
2023/09/02 01:30:55;;;;;;;2.23;2.03;;;12.50;99.90;11.90;100228;;;;571735;247;24073;-80
2023/09/02 01:33:24;;;;;;;4.27;2.80;;;12.50;99.90;11.90;100233;;;;571435;247;24093;-79
2023/09/02 01:35:49;;;;;;;2.77;2.07;;;12.50;99.90;11.90;100238;;;;571548;247;24139;-77
2023/09/02 01:38:21;;;;;;;2.50;2.30;;;12.50;99.90;11.90;100231;;;;572269;247;24095;-81
2023/09/02 01:40:48;;;;;;;3.37;2.60;;;12.60;99.90;11.80;100229;;;;571470;247;24091;-80
2023/09/02 01:43:16;;;;;;;2.63;2.43;;;12.50;99.90;11.80;100231;;;;571473;247;24088;-78
2023/09/02 01:45:44;;;;;;;2.83;2.63;;;12.50;99.90;11.80;100232;;;;571626;247;24089;-80
2023/09/02 01:48:09;;;;;;;4.47;2.20;;;12.50;99.90;11.80;100235;;;;571166;247;24070;-80
2023/09/02 01:50:40;;;;;;;2.37;2.23;;;12.40;99.90;11.80;100229;;;;571763;247;24087;-80
2023/09/02 01:53:05;;;;;;;3.90;2.40;;;12.40;99.90;11.80;100234;;;;571671;247;24094;-84
2023/09/02 01:55:32;;;;;;;3.57;2.67;;;12.40;99.90;11.70;100236;;;;572224;247;24131;-83
2023/09/02 01:58:04;;;;;;;2.57;2.37;;;12.40;99.90;11.70;100230;;;;572071;247;24142;-82
2023/09/02 02:00:31;;;;;;;4.23;2.63;;;12.30;99.90;11.70;100241;;;;570922;247;24118;-78
2023/09/02 02:02:58;;;;;;;2.33;2.13;;;12.40;99.90;11.70;100240;;;;570668;247;24108;-77
2023/09/02 02:05:28;;;;;;;5.17;3.17;;;12.40;99.90;11.70;100242;;;;570401;247;24083;-77
2023/09/02 02:07:52;;;;;;;2.90;2.30;;;12.40;99.90;11.70;100240;;;;568871;247;24104;-79
2023/09/02 02:10:20;;;;;;;2.47;2.27;;;12.30;99.90;11.70;100242;;;;570199;247;24211;-77
2023/09/02 02:12:52;;;;;;;3.53;2.43;;;12.30;99.90;11.70;100247;;;;570765;247;24099;-77
2023/09/02 02:15:16;;;;;;;3.40;2.60;;;12.30;99.90;11.70;100245;;;;570654;247;24077;-77
2023/09/02 02:17:44;;;;;;;4.27;2.50;;;12.30;99.90;11.70;100249;;;;570955;247;24103;-78
2023/09/02 02:20:12;;;;;;;4.37;2.33;;;12.20;99.90;11.70;100254;;;;570966;247;24117;-75
2023/09/02 02:22:44;;;;;;;3.37;2.70;;;12.30;99.90;11.70;100250;;;;570863;247;24117;-77
2023/09/02 02:25:08;;;;;;;4.03;2.60;;;12.30;99.90;11.60;100250;;;;570482;247;24100;-76
2023/09/02 02:27:36;;;;;;;3.53;2.60;;;12.30;99.90;11.60;100251;;;;570973;247;24093;-79
2023/09/02 02:30:04;;;;;;;2.77;2.57;;;12.30;99.90;11.60;100255;;;;571024;247;24068;-76
2023/09/02 02:32:32;;;;;;;2.23;2.13;;;12.30;99.90;11.60;100249;;;;570986;247;24161;-77
2023/09/02 02:35:01;;;;;;;3.03;2.73;;;12.20;99.90;11.60;100249;;;;572029;247;24097;-77
2023/09/02 02:37:29;;;;;;;2.57;2.37;;;12.20;99.90;11.60;100255;;;;572084;247;24161;-76
2023/09/02 02:39:57;;;;;;;2.53;2.33;;;12.20;99.90;11.60;100248;;;;571918;247;24116;-77
2023/09/02 02:42:24;;;;;;;3.07;2.40;;;12.20;99.90;11.60;100244;;;;571202;247;24081;-76
2023/09/02 02:44:52;;;;;;;4.43;2.93;;;12.20;99.90;11.60;100253;;;;571271;247;24132;-78
2023/09/02 02:47:20;;;;;;;2.23;2.10;;;12.20;99.90;11.60;100254;;;;571325;247;24077;-76
2023/09/02 02:49:48;;;;;;;6.13;3.20;;;12.20;99.90;11.60;100255;;;;571410;247;24109;-77
2023/09/02 02:52:16;;;;;;;2.87;2.67;;;12.20;99.90;11.60;100251;;;;571180;247;24089;-78
2023/09/02 02:54:44;;;;;;;5.63;2.90;;;12.20;99.90;11.60;100257;;;;570877;247;24137;-76
2023/09/02 02:57:12;;;;;;;3.27;2.97;;;12.20;99.90;11.50;100263;;;;571056;247;24112;-78
2023/09/02 02:59:41;;;;;;;3.83;2.50;;;12.20;99.90;11.60;100259;;;;570990;247;24125;-78
2023/09/02 03:02:09;;;;;;;4.53;2.83;;;12.20;99.90;11.60;100250;;;;571389;247;24070;-76
2023/09/02 03:04:37;;;;;;;3.20;2.90;;;12.20;99.90;11.60;100254;;;;571217;247;24125;-76
2023/09/02 03:07:05;;;;;;;3.73;2.93;;;12.20;99.90;11.70;100256;;;;571358;247;24087;-78
2023/09/02 03:09:33;;;;;;;5.17;3.03;;;12.30;99.90;11.70;100253;;;;571116;247;24110;-76
2023/09/02 03:12:02;;;;;;;3.30;3.00;;;12.30;99.90;11.60;100261;;;;571264;247;24085;-76
2023/09/02 03:14:29;;;;;;;3.03;2.80;;;12.30;99.90;11.60;100258;;;;571095;247;24066;-77
2023/09/02 03:16:57;;;;;;;3.50;3.20;;;12.30;99.90;11.60;100257;;;;571230;247;24073;-76
2023/09/02 03:19:26;;;;;;;3.50;3.20;;;12.20;99.90;11.60;100259;;;;571323;247;24103;-77
2023/09/02 03:21:54;;;;;;;3.13;2.93;;;12.20;99.90;11.60;100256;;;;571334;247;24082;-77
2023/09/02 03:24:22;;;;;;;6.60;3.60;;;12.30;99.90;11.70;100259;;;;571246;247;24166;-75
2023/09/02 03:26:50;;;;;;;4.83;3.10;;;12.30;99.90;11.70;100270;;;;571198;247;24070;-76
2023/09/02 03:29:18;;;;;;;3.03;2.80;;;12.30;99.90;11.60;100266;;;;571217;247;24079;-76
2023/09/02 03:31:45;;;;;;;5.20;3.27;;;12.30;99.90;11.60;100255;;;;571031;247;24149;-77
2023/09/02 03:34:13;;;;;;;4.43;2.63;;;12.20;99.90;11.60;100264;;;;571018;247;24140;-77
2023/09/02 03:36:41;;;;;;;3.33;3.00;;;12.20;99.90;11.60;100255;;;;571235;247;24148;-77
2023/09/02 03:39:09;;;;;;;3.70;2.83;;;12.20;99.90;11.60;100262;;;;571207;247;24099;-77
2023/09/02 03:41:37;;;;;;;3.77;3.47;;;12.20;99.90;11.60;100263;;;;570870;247;24150;-78
2023/09/02 03:44:05;;;;;;;4.63;3.50;;;12.20;99.90;11.60;100264;;;;570724;247;24155;-77
2023/09/02 03:46:36;;;;;;;8.33;3.00;;;12.20;99.90;11.60;100270;;;;571831;247;24075;-77
2023/09/02 03:49:01;;;;;;;5.37;3.73;;;12.20;99.90;11.50;100270;;;;571609;247;24095;-77
2023/09/02 03:51:30;;;;;;;4.03;3.00;;;12.10;99.90;11.50;100277;;;;571696;247;24085;-77
2023/09/02 03:53:57;;;;;;;3.93;3.60;;;12.10;99.90;11.50;100271;;;;571680;247;24155;-77
2023/09/02 03:56:25;;;;;;;3.97;3.67;;;12.10;99.90;11.50;100275;;;;571496;247;24090;-78
2023/09/02 03:58:54;;;;;;;7.40;3.77;;;12.10;99.90;11.50;100266;;;;571613;247;24118;-78
2023/09/02 04:01:21;;;;;;;5.53;3.83;;;12.10;99.90;11.50;100279;;;;571647;247;24068;-77
2023/09/02 04:03:49;;;;;;;3.23;2.93;;;12.10;99.90;11.50;100274;;;;571401;247;24077;-77
2023/09/02 04:06:17;;;;;;;4.20;3.47;;;12.10;99.90;11.60;100282;;;;571620;247;24070;-77
2023/09/02 04:08:45;;;;;;;4.13;3.73;;;12.20;99.90;11.60;100281;;;;571042;247;24097;-77
2023/09/02 04:11:13;;;;;;;6.33;3.37;;;12.20;99.90;11.60;100285;;;;571032;247;24142;-77
2023/09/02 04:13:41;;;;;;;3.70;3.40;;;12.20;99.90;11.60;100290;;;;571387;247;24081;-77
2023/09/02 04:16:10;;;;;;;4.03;3.40;;;12.20;99.90;11.70;100286;;;;571633;247;25149;-78
2023/09/02 04:18:40;;;;;;;4.63;3.90;;;12.30;99.90;11.70;100290;;;;571602;247;24108;-78
2023/09/02 04:21:08;;;;;;;4.30;3.60;;;12.30;99.90;11.80;100294;;;;571318;247;24127;-77
2023/09/02 04:23:32;;;;;;;6.57;3.63;;;12.30;99.90;11.80;100292;;;;570871;247;24091;-77
2023/09/02 04:26:03;;;;;;;6.23;4.07;;;12.40;99.90;11.90;100288;;;;571465;247;24187;-79
2023/09/02 04:28:32;;;;;;;4.23;3.83;;;12.50;99.90;12.00;100297;;;;571101;247;24090;-77
2023/09/02 04:31:00;;;;;;;8.70;4.40;;;12.50;99.90;12.00;100302;;;;570846;247;24151;-78
2023/09/02 04:33:24;;;;;;;7.20;4.60;;;12.60;99.90;12.10;100305;;;;570937;247;24164;-77
2023/09/02 04:35:56;;;;;;;6.43;4.47;;;12.70;99.90;12.20;100309;;;;571549;247;24077;-82
2023/09/02 04:38:20;;;;;;;3.93;3.63;;;12.70;99.90;12.30;100305;;;;571274;247;24082;-80
2023/09/02 04:40:48;;;;;;;7.23;4.70;;;12.80;99.90;12.40;100309;;;;571876;247;24091;-77
2023/09/02 04:43:16;;;;;;;7.07;4.57;;;12.90;99.90;12.40;100320;;;;571893;247;24143;-83
2023/09/02 04:45:44;;;;;;;4.33;3.93;;;13.00;99.90;12.50;100325;;;;571397;247;24095;-80
2023/09/02 04:48:14;;;;;;;8.00;4.43;;;13.10;99.90;12.60;100330;;;;571545;247;24103;-80
2023/09/02 04:50:40;;;;;;;5.07;3.87;;;13.10;99.90;12.70;100335;;;;571166;247;24095;-80
2023/09/02 04:53:08;;;;;;;6.77;4.63;;;13.20;99.90;12.80;100339;;;;571004;247;24118;-80
2023/09/02 04:55:43;;;;;;;7.27;4.50;;;13.30;99.90;12.90;100338;;;;570923;247;24191;-77
2023/09/02 04:58:07;;;;;;;5.27;4.17;;;13.50;99.90;13.30;100338;;;;571539;247;24097;-78
2023/09/02 05:00:35;;;;;;;8.13;5.10;;;13.80;99.90;14.50;100344;;;;572273;247;24100;-76
2023/09/02 05:03:03;;;;;;;7.33;5.50;;;14.80;99.90;15.80;100351;;;;571829;247;24115;-77
2023/09/02 05:05:31;;;;;;;9.37;5.77;;;16.10;99.90;17.00;100356;;;;571528;247;24092;-77
2023/09/02 05:08:03;;;;;;;8.03;5.23;;;17.30;99.90;18.10;100361;;;;571052;247;24135;-78
2023/09/02 05:10:27;;;;;;;6.33;4.67;;;18.50;99.90;19.10;100363;;;;570667;247;24100;-77
2023/09/02 05:12:55;;;;;;;3.47;3.17;;;19.60;99.90;20.10;100370;;;;571537;247;24130;-78
2023/09/02 05:15:22;;;;;;;2.90;2.70;;;20.60;99.90;21.00;100374;;;;571079;247;24147;-78
2023/09/02 05:17:53;;;;;;;2.70;2.50;;;21.60;99.90;21.90;100378;;;;570956;247;24115;-76
2023/09/02 05:20:22;;;;;;;2.60;2.40;;;22.40;99.90;22.60;100371;;;;570614;247;24107;-76
2023/09/02 05:22:46;;;;;;;3.40;2.47;;;23.10;99.90;23.30;100374;;;;570300;247;24164;-77
2023/09/02 05:25:15;;;;;;;2.63;2.20;;;23.80;99.90;24.00;100372;;;;571181;247;24119;-78
2023/09/02 05:27:44;;;;;;;2.47;2.27;;;24.50;99.90;24.70;100378;;;;571144;247;24155;-78
2023/09/02 05:30:11;;;;;;;2.07;1.97;;;25.10;99.90;25.30;100370;;;;571122;247;23099;-77
2023/09/02 05:32:40;;;;;;;2.37;2.00;;;26.30;99.90;25.90;100374;;;;570970;247;23137;-80
2023/09/02 05:35:13;;;;;;;3.30;2.30;;;26.30;99.90;26.50;100372;;;;571505;247;23110;-78
2023/09/02 05:37:37;;;;;;;2.47;2.27;;;27.00;99.90;26.80;100371;;;;570633;247;23158;-78
2023/09/02 05:40:09;;;;;;;2.27;2.17;;;27.40;99.90;27.40;100376;;;;571071;247;23139;-78
2023/09/02 05:42:35;;;;;;;2.20;2.07;;;27.90;99.90;28.00;100379;;;;571285;247;24151;-78
2023/09/02 05:45:07;;;;;;;2.47;2.28;;;28.40;99.10;28.50;100376;;;;571865;247;24117;-81
2023/09/02 05:47:31;;;;;;;2.33;2.22;;;29.00;97.50;28.90;100386;;;;571303;247;24218;-78
2023/09/02 05:50:00;;;;;;;4.32;3.00;;;29.50;95.50;29.00;100384;;;;571182;247;23092;-77
2023/09/02 05:52:28;;;;;;;3.30;3.00;;;29.90;93.00;29.50;100393;;;;571459;247;23136;-79
2023/09/02 05:54:56;;;;;;;3.22;3.03;;;29.90;93.00;29.90;100392;;;;571751;247;23162;-80
2023/09/02 05:57:24;;;;;;;2.40;2.20;;;30.40;91.50;30.50;100400;;;;571699;247;24131;-77
2023/09/02 05:59:51;;;;;;;2.90;2.80;;;30.80;90.10;30.90;100406;;;;571675;247;23173;-80
2023/09/02 06:02:19;;;;;;;3.53;2.80;;;31.30;87.50;31.10;100406;;;;571564;247;23158;-78
2023/09/02 06:04:47;;;;;;;4.05;2.37;;;31.60;85.30;31.30;100411;;;;571589;247;23153;-79
2023/09/02 06:07:15;;;;;;;2.90;2.70;;;31.70;84.30;31.60;100404;;;;571608;247;23141;-79
2023/09/02 06:09:43;;;;;;;4.32;2.72;;;32.00;82.30;32.30;100411;;;;572581;247;23156;-78
2023/09/02 06:12:11;;;;;;;3.17;2.87;;;32.50;80.30;32.70;100404;;;;572892;247;23180;-81
2023/09/02 06:14:39;;;;;;;3.92;3.37;;;33.00;78.00;33.10;100406;;;;572503;247;23165;-78
2023/09/02 06:17:07;;;;;;;6.53;3.72;;;33.50;77.00;33.50;100410;;;;571648;247;24116;-80
2023/09/02 06:19:35;;;;;;;3.65;2.70;;;33.80;74.10;33.70;100415;;;;570955;247;23145;-80
2023/09/02 06:22:03;;;;;;;3.05;2.78;;;34.30;71.20;33.90;100431;;;;571339;247;23104;-77
2023/09/02 06:24:32;;;;;;;2.67;2.47;;;34.40;70.40;34.00;100422;;;;570955;247;23086;-80
2023/09/02 06:27:03;;;;;;;3.62;2.55;;;34.60;69.40;34.40;100426;;;;570923;247;23111;-78
2023/09/02 06:29:30;;;;;;;4.40;2.62;;;34.60;69.40;34.80;100425;;;;570531;247;23100;-80
2023/09/02 06:31:57;;;;;;;5.22;2.78;;;35.00;67.80;35.00;100421;;;;570605;247;23115;-78
2023/09/02 06:34:24;;;;;;;3.50;2.95;;;35.20;66.10;35.10;100434;;;;570987;247;23233;-80
2023/09/02 06:36:52;;;;;;;4.22;2.40;;;35.40;65.70;35.50;100430;;;;571689;247;24124;-79
2023/09/02 06:39:20;;;;;;;2.97;2.58;;;35.80;65.00;36.30;100429;;;;571554;247;23164;-79
2023/09/02 06:41:48;;;;;;;2.65;2.55;;;36.40;63.00;36.90;100440;;;;571245;247;23091;-79
2023/09/02 06:44:16;;;;;;;2.87;2.65;;;36.90;61.50;37.20;100439;;;;570645;247;23087;-79
2023/09/02 06:46:45;;;;;;;3.72;2.58;;;37.50;59.20;37.30;100434;;;;570529;247;23165;-78
2023/09/02 06:49:13;;;;;;;2.95;2.42;;;37.70;58.50;37.50;100434;;;;570344;247;24146;-77
2023/09/02 06:51:41;;;;;;;3.17;2.92;;;37.70;58.40;37.80;100437;;;;570488;247;24120;-78
2023/09/02 06:54:09;;;;;;;2.90;2.70;;;37.90;57.70;38.10;100452;;;;570541;247;23103;-83
2023/09/02 06:56:37;;;;;;;2.40;2.15;;;38.30;57.10;37.90;100445;;;;570446;247;24114;-82
2023/09/02 06:59:08;;;;;;;8.07;2.62;;;38.20;56.90;38.10;100445;;;;570677;247;24148;-84
2023/09/02 07:01:33;;;;;;;2.85;2.60;;;38.40;56.30;38.00;100449;;;;570641;247;23103;-82
2023/09/02 07:04:01;;;;;;;3.03;2.75;;;38.40;56.00;38.30;100454;;;;571172;247;23185;-79
2023/09/02 07:06:29;;;;;;;7.85;2.97;;;38.40;55.90;38.70;100461;;;;571529;247;23177;-80
2023/09/02 07:08:57;;;;;;;3.03;2.45;;;38.80;55.20;38.80;100466;;;;571284;247;23181;-78
2023/09/02 07:11:28;;;;;;;3.22;2.50;;;39.00;55.20;39.10;100471;;;;571361;247;23150;-78
2023/09/02 07:13:56;;;;;;;4.93;2.50;;;39.30;54.40;39.60;100480;;;;571610;247;24195;-79
2023/09/02 07:16:27;;;;;;;2.55;2.35;;;39.60;53.70;39.90;100482;;;;571927;247;23126;-78
2023/09/02 07:18:51;;;;;;;2.50;2.30;;;39.90;53.10;40.30;100476;;;;571111;247;24190;-77
2023/09/02 07:21:22;;;;;;;2.97;2.37;;;40.20;52.20;40.60;100485;;;;572698;247;23093;-79
2023/09/02 07:23:47;;;;;;;2.42;2.33;;;40.60;51.60;40.70;100486;;;;572557;247;23139;-81
2023/09/02 07:26:15;;;;;;;2.87;2.67;;;40.80;50.60;40.60;100497;;;;572122;247;24107;-86
2023/09/02 07:28:43;;;;;;;3.87;2.65;;;40.70;50.20;40.50;100488;;;;572001;247;23082;-85
2023/09/02 07:31:11;;;;;;;2.60;2.40;;;40.60;50.40;40.80;100497;;;;571488;247;23079;-82
2023/09/02 07:33:39;;;;;;;3.35;2.40;;;40.70;49.80;41.00;100504;;;;571362;247;23126;-86
2023/09/02 07:36:10;;;;;;;3.62;2.20;;;41.00;49.40;40.80;100504;;;;571040;247;23111;-86
2023/09/02 07:38:35;;;;;;;2.80;2.50;;;40.90;49.40;41.00;100505;;;;570428;247;23125;-87
2023/09/02 07:41:05;;;;;;;2.45;2.20;;;41.00;48.90;41.00;100521;;;;570972;247;24125;-83
2023/09/02 07:43:31;;;;;;;2.85;2.65;;;41.00;48.90;40.90;100515;;;;570762;247;23172;-81
2023/09/02 07:45:58;;;;;;;2.83;2.62;;;41.00;48.50;40.90;100525;;;;571561;247;23200;-83
2023/09/02 07:48:26;;;;;;;2.40;2.25;;;41.00;49.00;41.20;100529;;;;571574;247;23098;-86
2023/09/02 07:50:54;;;;;;;2.75;2.55;;;41.30;48.30;40.90;100528;;;;566529;247;46239;-86
2023/09/02 07:53:23;;;;;;;2.42;2.30;;;40.70;48.30;40.50;100541;;;;571132;247;23127;-86
2023/09/02 07:55:52;;;;;;;2.97;2.78;;;40.80;48.20;40.90;100547;;;;570774;247;23111;-84
2023/09/02 07:58:20;;;;;;;2.28;1.92;;;41.40;48.00;41.60;100539;;;;570708;247;23094;-82
2023/09/02 08:00:48;;;;;;;1.77;1.67;;;41.40;48.00;41.90;100539;;;;570518;247;24106;-80
2023/09/02 08:03:16;;;;;;;2.53;1.90;;;41.90;46.70;42.50;100539;;;;570993;243;23134;-82
2023/09/02 08:05:44;;;;;;;1.83;1.73;;;42.40;45.90;43.10;100543;;;;571182;247;23119;-79
2023/09/02 08:08:13;;;;;;;2.25;2.10;;;43.00;44.80;43.60;100553;;;;571339;247;24122;-84
2023/09/02 08:10:40;;;;;;;2.22;2.03;;;43.70;44.30;44.30;100557;;;;571632;247;23140;-81
2023/09/02 08:13:11;;;;;;;4.37;2.00;;;44.30;43.50;44.40;100560;;;;571332;247;23094;-81
2023/09/02 08:15:38;;;;;;;3.10;1.75;;;44.60;43.20;44.30;100566;;;;570598;247;23083;-86
2023/09/02 08:18:06;;;;;;;3.03;1.83;;;44.80;42.80;44.40;100565;;;;570651;247;23109;-82
2023/09/02 08:20:35;;;;;;;3.50;1.83;;;44.90;42.10;44.20;100569;;;;570700;247;24121;-80
2023/09/02 08:23:02;;;;;;;2.80;1.90;;;44.80;42.00;43.50;100575;;;;570821;247;23197;-81
2023/09/02 08:25:30;;;;;;;2.35;1.83;;;44.10;42.30;43.20;100579;;;;570545;247;24316;-82
2023/09/02 08:27:58;;;;;;;2.00;1.90;;;43.70;43.10;43.50;100576;;;;570658;247;23110;-82
2023/09/02 08:30:26;;;;;;;2.28;1.73;;;43.80;42.80;43.90;100576;;;;570498;247;23093;-81
2023/09/02 08:32:54;;;;;;;2.03;1.80;;;44.20;42.70;44.20;100587;;;;571781;247;23092;-85
2023/09/02 08:35:22;;;;;;;2.03;1.80;;;44.60;42.80;44.70;100577;;;;571662;247;23098;-81
2023/09/02 08:37:51;;;;;;;1.92;1.83;;;45.10;42.10;45.10;100594;;;;571815;247;23135;-82
2023/09/02 08:40:18;;;;;;;2.58;2.20;;;45.40;41.00;45.30;100604;;;;571497;247;23102;-81
2023/09/02 08:42:45;;;;;;;2.25;2.10;;;45.90;40.80;45.00;100605;;;;571117;247;23110;-80
2023/09/02 08:45:13;;;;;;;2.15;1.92;;;45.80;40.00;44.70;100600;;;;571225;247;23087;-81
2023/09/02 08:47:41;;;;;;;1.90;1.80;;;45.40;40.70;45.00;100606;;;;572070;247;24153;-80
2023/09/02 08:50:09;;;;;;;1.70;1.60;;;45.70;40.80;44.90;100622;;;;572123;247;23181;-88
2023/09/02 08:52:41;;;;;;;2.10;1.60;;;45.60;40.70;45.10;100616;;;;571761;247;23095;-81
2023/09/02 08:55:10;;;;;;;2.50;2.20;;;45.80;40.50;44.80;100630;;;;566249;247;35227;-85
2023/09/02 08:57:38;;;;;;;1.83;1.73;;;45.80;39.80;44.60;100623;;;;570843;247;23109;-85
2023/09/02 09:00:07;;;;;;;4.00;1.85;;;45.60;39.90;44.30;100627;;;;571178;247;23144;-79
2023/09/02 09:02:30;;;;;;;1.70;1.58;;;45.10;40.60;44.60;100629;;;;571623;247;24183;-79
2023/09/02 09:05:01;;;;;;;1.77;1.67;;;45.20;40.80;45.10;100638;;;;571768;247;23090;-87
2023/09/02 09:07:28;;;;;;;3.00;1.75;;;46.00;39.40;45.10;100633;;;;571641;247;23117;-84
2023/09/02 09:09:56;;;;;;;1.58;1.50;;;46.00;39.40;44.40;100643;;;;571148;247;23189;-88
2023/09/02 09:12:24;;;;;;;1.80;1.70;;;45.60;38.90;43.40;100645;;;;570979;247;23098;-83
2023/09/02 09:14:52;;;;;;;2.00;1.73;;;43.80;40.70;42.70;100647;;;;570663;247;23221;-81
2023/09/02 09:17:23;;;;;;;2.37;1.73;;;43.80;40.60;42.80;100643;;;;571360;247;23109;-83
2023/09/02 09:19:48;;;;;;;1.60;1.58;;;43.80;41.10;43.60;100649;;;;571367;247;23115;-83
2023/09/02 09:22:17;;;;;;;2.85;1.58;;;44.60;39.50;43.60;100647;;;;571081;247;23133;-78
2023/09/02 09:24:46;;;;;;;1.70;1.60;;;44.50;40.30;43.50;100653;;;;570976;247;24154;-84
2023/09/02 09:27:16;;;;;;;1.80;1.70;;;45.10;40.10;44.10;100656;;;;566675;247;35219;-79
2023/09/02 09:29:45;;;;;;;1.65;1.55;;;45.10;39.80;44.20;100656;;;;570966;247;23142;-83
2023/09/02 09:32:10;;;;;;;2.35;1.77;;;45.50;39.20;43.60;100656;;;;571161;247;23134;-84
2023/09/02 09:34:41;;;;;;;1.67;1.62;;;45.10;39.30;43.50;100658;;;;571720;247;23097;-87
2023/09/02 09:37:12;;;;;;;1.50;1.40;;;45.20;39.40;43.70;100666;;;;571655;247;23119;-80
2023/09/02 09:39:47;;;;;;;1.37;1.30;;;45.20;39.30;44.00;100670;;;;570751;247;23349;-82
2023/09/02 09:42:15;;;;;;;1.48;1.42;;;45.40;38.70;44.30;100669;;;;571411;247;23101;-86
2023/09/02 09:44:57;;;;;;;3.87;1.50;;;45.80;38.20;44.30;100671;;;;572605;247;23118;-83
2023/09/02 09:47:22;;;;;;;1.70;1.60;;;45.80;38.40;44.50;100673;;;;572345;247;23143;-81
2023/09/02 09:49:54;;;;;;;3.90;1.70;;;46.30;38.40;44.60;100672;;;;561674;251;23213;-80
2023/09/02 09:52:25;;;;;;;1.35;1.30;;;46.30;38.20;45.20;100674;;;;568174;248;23116;-81
2023/09/02 09:54:51;;;;;;;1.40;1.40;;;46.70;38.30;45.80;100680;;;;567954;248;23097;-86
2023/09/02 09:57:39;;;;;;;3.30;1.45;;;47.30;36.90;45.80;100689;;;;568203;248;23096;-78
2023/09/02 10:00:10;;;;;;;1.45;1.45;;;47.60;36.70;45.20;100685;;;;568173;248;23147;-80
2023/09/02 10:02:39;;;;;;;1.65;1.55;;;47.20;36.80;45.40;100688;;;;560924;252;25276;-85
2023/09/02 10:05:03;;;;;;;2.45;1.45;;;47.20;36.70;45.10;100695;;;;560364;252;23146;-79
2023/09/02 10:07:33;;;;;;;1.67;1.58;;;47.10;37.10;44.60;100685;;;;567656;249;23132;-85
2023/09/02 10:10:05;;;;;;;1.37;1.27;;;46.30;37.80;44.20;100695;;;;567806;249;23126;-86
2023/09/02 10:12:36;;;;;;;2.35;1.58;;;46.30;37.70;42.30;100702;;;;569314;247;23114;-85
2023/09/02 10:15:07;;;;;;;1.60;1.50;;;45.00;37.80;39.70;100701;;;;567786;249;23069;-79
2023/09/02 10:17:32;;;;;;;1.98;1.40;;;42.20;40.30;37.60;100707;;;;567464;249;23081;-79
2023/09/02 10:19:59;;;;;;;1.37;1.27;;;39.80;41.50;35.30;100704;;;;567821;249;23117;-81
2023/09/02 10:22:29;;;;;;;1.92;1.52;;;37.30;44.10;33.40;100701;;;;567657;249;23068;-78
2023/09/02 10:25:10;;;;;;;2.00;1.62;;;35.00;47.00;32.30;100707;;;;560080;252;23180;-80
2023/09/02 10:27:38;;;;;;;1.83;1.45;;;33.50;50.50;31.50;100695;;;;570106;247;23125;-79
2023/09/02 10:30:06;;;;;;;1.30;1.30;;;32.40;51.50;30.90;100696;;;;570398;247;23187;-77
2023/09/02 10:32:40;;;;;;;1.20;1.10;;;31.60;52.80;30.10;100707;;;;570315;247;23113;-82
2023/09/02 10:35:11;;;;;;;2.60;1.40;;;30.00;55.00;29.30;100706;;;;570501;247;24167;-80
2023/09/02 10:37:42;;;;;;;1.87;1.77;;;29.90;55.00;28.10;100707;;;;569096;247;23222;-81
2023/09/02 10:40:10;;;;;;;2.33;1.30;;;28.80;57.50;27.30;100713;;;;570716;247;24167;-76
2023/09/02 10:42:42;;;;;;;2.20;1.60;;;27.90;59.90;26.50;100718;;;;565777;247;35294;-84
2023/09/02 10:45:07;;;;;;;2.13;1.70;;;27.10;63.50;26.00;100707;;;;570374;247;23130;-78
2023/09/02 10:47:36;;;;;;;2.53;1.47;;;26.00;68.00;25.70;100713;;;;570822;247;23157;-86
2023/09/02 10:50:04;;;;;;;3.63;1.67;;;26.00;67.20;25.30;100717;;;;571051;247;23149;-79
2023/09/02 10:52:32;;;;;;;1.33;1.33;;;25.60;68.00;24.90;100719;;;;570871;247;23090;-79
2023/09/02 10:55:09;;;;;;;3.37;1.50;;;25.20;69.60;24.40;100723;;;;571368;246;24120;-80
2023/09/02 10:57:33;;;;;;;2.40;1.43;;;24.70;71.50;24.10;100717;;;;572017;247;23211;-81
2023/09/02 11:00:23;;;;;;;1.60;1.50;;;24.40;73.10;23.70;100723;;;;570389;247;23121;-82
2023/09/02 11:02:51;;;;;;;3.37;1.80;;;24.10;74.60;23.30;100720;;;;570704;247;24073;-80
2023/09/02 11:05:17;;;;;;;1.47;1.37;;;23.70;75.90;23.00;100717;;;;570683;247;24077;-78
2023/09/02 11:07:48;;;;;;;1.50;1.40;;;23.40;76.40;22.90;100727;;;;571120;247;24076;-80
2023/09/02 11:10:13;;;;;;;1.90;1.80;;;23.20;78.20;22.80;100727;;;;571091;247;24152;-79
2023/09/02 11:12:59;;;;;;;2.77;1.90;;;23.10;80.30;22.80;100728;;;;571085;247;23148;-79
2023/09/02 11:15:31;;;;;;;1.40;1.30;;;23.10;80.70;22.70;100731;;;;570938;247;24158;-81